sensor_id;sensor_type;location;lat;lon;timestamp;P1;durP1;ratioP1;P2;durP2;ratioP2
72676;SDS011;60755;51.374;10.662;2023-06-14T00:00:48;3.43;;;3.07;;
72676;SDS011;60755;51.374;10.662;2023-06-14T00:03:15;9.20;;;3.83;;
72676;SDS011;60755;51.374;10.662;2023-06-14T00:05:43;6.80;;;3.53;;
72676;SDS011;60755;51.374;10.662;2023-06-14T00:08:12;4.00;;;3.60;;
72676;SDS011;60755;51.374;10.662;2023-06-14T00:10:40;7.23;;;3.33;;
72676;SDS011;60755;51.374;10.662;2023-06-14T00:13:08;3.90;;;3.60;;
72676;SDS011;60755;51.374;10.662;2023-06-14T00:15:36;3.67;;;3.33;;
72676;SDS011;60755;51.374;10.662;2023-06-14T00:18:03;3.60;;;3.30;;
72676;SDS011;60755;51.374;10.662;2023-06-14T00:20:32;4.60;;;3.43;;
72676;SDS011;60755;51.374;10.662;2023-06-14T00:22:59;4.93;;;3.20;;
72676;SDS011;60755;51.374;10.662;2023-06-14T00:25:26;3.40;;;3.20;;
72676;SDS011;60755;51.374;10.662;2023-06-14T00:27:56;3.40;;;3.20;;
72676;SDS011;60755;51.374;10.662;2023-06-14T00:30:24;3.70;;;3.50;;
72676;SDS011;60755;51.374;10.662;2023-06-14T00:32:56;3.47;;;3.17;;
72676;SDS011;60755;51.374;10.662;2023-06-14T00:35:25;4.60;;;3.73;;
72676;SDS011;60755;51.374;10.662;2023-06-14T00:37:52;4.50;;;3.80;;
72676;SDS011;60755;51.374;10.662;2023-06-14T00:40:20;3.27;;;3.07;;
72676;SDS011;60755;51.374;10.662;2023-06-14T00:42:47;8.37;;;3.60;;
72676;SDS011;60755;51.374;10.662;2023-06-14T00:45:17;4.07;;;3.17;;
72676;SDS011;60755;51.374;10.662;2023-06-14T00:47:44;3.97;;;3.60;;
72676;SDS011;60755;51.374;10.662;2023-06-14T00:50:13;5.37;;;3.73;;
72676;SDS011;60755;51.374;10.662;2023-06-14T00:52:40;4.03;;;3.63;;
72676;SDS011;60755;51.374;10.662;2023-06-14T00:55:08;3.97;;;3.70;;
72676;SDS011;60755;51.374;10.662;2023-06-14T00:57:35;3.63;;;3.33;;
72676;SDS011;60755;51.374;10.662;2023-06-14T01:00:06;3.63;;;3.40;;
72676;SDS011;60755;51.374;10.662;2023-06-14T01:02:36;3.70;;;3.40;;
72676;SDS011;60755;51.374;10.662;2023-06-14T01:05:03;4.43;;;3.90;;
72676;SDS011;60755;51.374;10.662;2023-06-14T01:07:34;7.57;;;3.47;;
72676;SDS011;60755;51.374;10.662;2023-06-14T01:10:13;6.50;;;3.40;;
72676;SDS011;60755;51.374;10.662;2023-06-14T01:12:50;3.60;;;3.40;;
72676;SDS011;60755;51.374;10.662;2023-06-14T01:15:24;4.57;;;3.03;;
72676;SDS011;60755;51.374;10.662;2023-06-14T01:17:54;3.67;;;3.37;;
72676;SDS011;60755;51.374;10.662;2023-06-14T01:20:29;6.07;;;4.40;;
72676;SDS011;60755;51.374;10.662;2023-06-14T01:22:59;3.53;;;3.23;;
72676;SDS011;60755;51.374;10.662;2023-06-14T01:25:26;3.80;;;3.50;;
72676;SDS011;60755;51.374;10.662;2023-06-14T01:27:53;3.87;;;3.57;;
72676;SDS011;60755;51.374;10.662;2023-06-14T01:30:25;3.93;;;3.63;;
72676;SDS011;60755;51.374;10.662;2023-06-14T01:32:53;3.33;;;3.13;;
72676;SDS011;60755;51.374;10.662;2023-06-14T01:35:22;4.50;;;3.50;;
72676;SDS011;60755;51.374;10.662;2023-06-14T01:37:49;3.33;;;3.13;;
72676;SDS011;60755;51.374;10.662;2023-06-14T01:40:19;3.43;;;3.10;;
72676;SDS011;60755;51.374;10.662;2023-06-14T01:42:48;3.47;;;3.27;;
72676;SDS011;60755;51.374;10.662;2023-06-14T01:45:17;5.67;;;5.17;;
72676;SDS011;60755;51.374;10.662;2023-06-14T01:47:45;5.67;;;4.47;;
72676;SDS011;60755;51.374;10.662;2023-06-14T01:50:12;4.20;;;3.80;;
72676;SDS011;60755;51.374;10.662;2023-06-14T01:52:39;4.73;;;4.17;;
72676;SDS011;60755;51.374;10.662;2023-06-14T01:55:09;3.93;;;3.57;;
72676;SDS011;60755;51.374;10.662;2023-06-14T01:57:39;5.07;;;3.53;;
72676;SDS011;60755;51.374;10.662;2023-06-14T02:00:07;3.10;;;2.90;;
72676;SDS011;60755;51.374;10.662;2023-06-14T02:02:38;4.37;;;3.20;;
72676;SDS011;60755;51.374;10.662;2023-06-14T02:05:05;3.30;;;3.10;;
72676;SDS011;60755;51.374;10.662;2023-06-14T02:07:33;3.60;;;3.07;;
72676;SDS011;60755;51.374;10.662;2023-06-14T02:10:00;5.43;;;3.47;;
72676;SDS011;60755;51.374;10.662;2023-06-14T02:12:27;5.60;;;3.50;;
72676;SDS011;60755;51.374;10.662;2023-06-14T02:14:58;3.27;;;3.10;;
72676;SDS011;60755;51.374;10.662;2023-06-14T02:17:26;3.67;;;3.40;;
72676;SDS011;60755;51.374;10.662;2023-06-14T02:19:54;3.93;;;3.30;;
72676;SDS011;60755;51.374;10.662;2023-06-14T02:22:25;3.87;;;3.57;;
72676;SDS011;60755;51.374;10.662;2023-06-14T02:24:52;3.73;;;3.53;;
72676;SDS011;60755;51.374;10.662;2023-06-14T02:27:19;4.00;;;3.70;;
72676;SDS011;60755;51.374;10.662;2023-06-14T02:29:46;3.33;;;3.13;;
72676;SDS011;60755;51.374;10.662;2023-06-14T02:32:14;3.93;;;3.63;;
72676;SDS011;60755;51.374;10.662;2023-06-14T02:34:41;3.50;;;3.30;;
72676;SDS011;60755;51.374;10.662;2023-06-14T02:37:08;5.63;;;3.70;;
72676;SDS011;60755;51.374;10.662;2023-06-14T02:39:36;3.83;;;3.20;;
72676;SDS011;60755;51.374;10.662;2023-06-14T02:42:03;5.70;;;3.60;;
72676;SDS011;60755;51.374;10.662;2023-06-14T02:44:31;3.60;;;3.40;;
72676;SDS011;60755;51.374;10.662;2023-06-14T02:46:59;4.23;;;3.80;;
72676;SDS011;60755;51.374;10.662;2023-06-14T02:49:27;5.90;;;3.63;;
72676;SDS011;60755;51.374;10.662;2023-06-14T02:51:55;3.73;;;3.50;;
72676;SDS011;60755;51.374;10.662;2023-06-14T02:54:22;4.90;;;3.33;;
72676;SDS011;60755;51.374;10.662;2023-06-14T02:56:50;7.33;;;3.67;;
72676;SDS011;60755;51.374;10.662;2023-06-14T02:59:17;4.47;;;4.07;;
72676;SDS011;60755;51.374;10.662;2023-06-14T03:01:44;4.00;;;3.70;;
72676;SDS011;60755;51.374;10.662;2023-06-14T03:04:13;7.13;;;3.70;;
72676;SDS011;60755;51.374;10.662;2023-06-14T03:06:43;5.17;;;3.77;;
72676;SDS011;60755;51.374;10.662;2023-06-14T03:09:18;4.77;;;3.80;;
72676;SDS011;60755;51.374;10.662;2023-06-14T03:11:46;4.17;;;3.50;;
72676;SDS011;60755;51.374;10.662;2023-06-14T03:14:13;5.83;;;3.80;;
72676;SDS011;60755;51.374;10.662;2023-06-14T03:16:43;4.03;;;3.83;;
72676;SDS011;60755;51.374;10.662;2023-06-14T03:19:12;3.50;;;3.30;;
72676;SDS011;60755;51.374;10.662;2023-06-14T03:21:39;3.70;;;3.50;;
72676;SDS011;60755;51.374;10.662;2023-06-14T03:24:11;3.90;;;3.60;;
72676;SDS011;60755;51.374;10.662;2023-06-14T03:26:39;3.87;;;3.57;;
72676;SDS011;60755;51.374;10.662;2023-06-14T03:29:06;3.53;;;3.33;;
72676;SDS011;60755;51.374;10.662;2023-06-14T03:31:33;3.87;;;3.63;;
72676;SDS011;60755;51.374;10.662;2023-06-14T03:34:03;3.70;;;3.40;;
72676;SDS011;60755;51.374;10.662;2023-06-14T03:36:30;5.60;;;3.50;;
72676;SDS011;60755;51.374;10.662;2023-06-14T03:38:59;3.43;;;3.23;;
72676;SDS011;60755;51.374;10.662;2023-06-14T03:41:27;4.30;;;3.90;;
72676;SDS011;60755;51.374;10.662;2023-06-14T03:43:54;3.77;;;3.57;;
72676;SDS011;60755;51.374;10.662;2023-06-14T03:46:21;4.37;;;3.40;;
72676;SDS011;60755;51.374;10.662;2023-06-14T03:48:48;4.10;;;3.70;;
72676;SDS011;60755;51.374;10.662;2023-06-14T03:51:16;4.13;;;3.83;;
72676;SDS011;60755;51.374;10.662;2023-06-14T03:53:44;3.83;;;3.63;;
72676;SDS011;60755;51.374;10.662;2023-06-14T03:56:11;4.03;;;3.73;;
72676;SDS011;60755;51.374;10.662;2023-06-14T03:58:43;7.40;;;3.70;;
72676;SDS011;60755;51.374;10.662;2023-06-14T04:01:10;3.87;;;3.30;;
72676;SDS011;60755;51.374;10.662;2023-06-14T04:03:38;4.00;;;3.70;;
72676;SDS011;60755;51.374;10.662;2023-06-14T04:06:05;6.23;;;3.77;;
72676;SDS011;60755;51.374;10.662;2023-06-14T04:08:33;5.23;;;3.50;;
72676;SDS011;60755;51.374;10.662;2023-06-14T04:11:00;4.23;;;3.53;;
72676;SDS011;60755;51.374;10.662;2023-06-14T04:13:27;3.60;;;3.30;;
72676;SDS011;60755;51.374;10.662;2023-06-14T04:15:56;3.60;;;3.40;;
72676;SDS011;60755;51.374;10.662;2023-06-14T04:18:28;3.53;;;3.23;;
72676;SDS011;60755;51.374;10.662;2023-06-14T04:20:55;4.07;;;3.20;;
72676;SDS011;60755;51.374;10.662;2023-06-14T04:23:22;3.47;;;3.17;;
72676;SDS011;60755;51.374;10.662;2023-06-14T04:25:50;3.70;;;3.30;;
72676;SDS011;60755;51.374;10.662;2023-06-14T04:28:17;3.40;;;3.10;;
72676;SDS011;60755;51.374;10.662;2023-06-14T04:30:45;3.47;;;2.77;;
72676;SDS011;60755;51.374;10.662;2023-06-14T04:33:16;3.38;;;2.80;;
72676;SDS011;60755;51.374;10.662;2023-06-14T04:35:43;3.10;;;2.90;;
72676;SDS011;60755;51.374;10.662;2023-06-14T04:38:13;3.20;;;3.00;;
72676;SDS011;60755;51.374;10.662;2023-06-14T04:40:41;2.78;;;2.60;;
72676;SDS011;60755;51.374;10.662;2023-06-14T04:43:10;4.65;;;2.85;;
72676;SDS011;60755;51.374;10.662;2023-06-14T04:45:40;3.25;;;2.85;;
72676;SDS011;60755;51.374;10.662;2023-06-14T04:48:10;4.07;;;2.88;;
72676;SDS011;60755;51.374;10.662;2023-06-14T04:50:39;3.15;;;2.95;;
72676;SDS011;60755;51.374;10.662;2023-06-14T04:53:07;2.80;;;2.70;;
72676;SDS011;60755;51.374;10.662;2023-06-14T04:55:34;3.10;;;2.80;;
72676;SDS011;60755;51.374;10.662;2023-06-14T04:58:03;4.60;;;4.30;;
72676;SDS011;60755;51.374;10.662;2023-06-14T05:00:30;3.50;;;3.22;;
72676;SDS011;60755;51.374;10.662;2023-06-14T05:02:58;7.10;;;3.03;;
72676;SDS011;60755;51.374;10.662;2023-06-14T05:05:26;24.50;;;11.48;;
72676;SDS011;60755;51.374;10.662;2023-06-14T05:07:55;5.05;;;3.78;;
72676;SDS011;60755;51.374;10.662;2023-06-14T05:10:22;8.50;;;6.15;;
72676;SDS011;60755;51.374;10.662;2023-06-14T05:12:49;7.22;;;5.28;;
72676;SDS011;60755;51.374;10.662;2023-06-14T05:15:18;3.35;;;3.15;;
72676;SDS011;60755;51.374;10.662;2023-06-14T05:17:45;4.20;;;2.90;;
72676;SDS011;60755;51.374;10.662;2023-06-14T05:20:18;3.97;;;3.10;;
72676;SDS011;60755;51.374;10.662;2023-06-14T05:22:45;4.20;;;3.40;;
72676;SDS011;60755;51.374;10.662;2023-06-14T05:25:14;4.38;;;3.97;;
72676;SDS011;60755;51.374;10.662;2023-06-14T05:27:41;3.30;;;3.10;;
72676;SDS011;60755;51.374;10.662;2023-06-14T05:30:08;3.40;;;3.20;;
72676;SDS011;60755;51.374;10.662;2023-06-14T05:32:37;3.60;;;3.30;;
72676;SDS011;60755;51.374;10.662;2023-06-14T05:35:04;3.40;;;3.20;;
72676;SDS011;60755;51.374;10.662;2023-06-14T05:37:32;3.60;;;3.30;;
72676;SDS011;60755;51.374;10.662;2023-06-14T05:39:59;3.15;;;2.88;;
72676;SDS011;60755;51.374;10.662;2023-06-14T05:42:27;5.30;;;3.08;;
72676;SDS011;60755;51.374;10.662;2023-06-14T05:44:54;3.55;;;3.10;;
72676;SDS011;60755;51.374;10.662;2023-06-14T05:47:21;3.08;;;2.80;;
72676;SDS011;60755;51.374;10.662;2023-06-14T05:49:49;3.17;;;2.97;;
72676;SDS011;60755;51.374;10.662;2023-06-14T05:52:15;5.15;;;3.30;;
72676;SDS011;60755;51.374;10.662;2023-06-14T05:54:42;3.20;;;2.95;;
72676;SDS011;60755;51.374;10.662;2023-06-14T05:57:10;4.10;;;2.83;;
72676;SDS011;60755;51.374;10.662;2023-06-14T05:59:38;4.35;;;3.20;;
72676;SDS011;60755;51.374;10.662;2023-06-14T06:02:05;3.30;;;3.10;;
72676;SDS011;60755;51.374;10.662;2023-06-14T06:04:32;6.35;;;3.95;;
72676;SDS011;60755;51.374;10.662;2023-06-14T06:06:59;4.22;;;3.63;;
72676;SDS011;60755;51.374;10.662;2023-06-14T06:09:26;4.72;;;3.58;;
72676;SDS011;60755;51.374;10.662;2023-06-14T06:11:53;4.40;;;4.03;;
72676;SDS011;60755;51.374;10.662;2023-06-14T06:14:20;5.25;;;4.40;;
72676;SDS011;60755;51.374;10.662;2023-06-14T06:16:48;5.35;;;3.35;;
72676;SDS011;60755;51.374;10.662;2023-06-14T06:19:18;5.07;;;3.47;;
72676;SDS011;60755;51.374;10.662;2023-06-14T06:21:45;3.78;;;3.45;;
72676;SDS011;60755;51.374;10.662;2023-06-14T06:24:12;4.47;;;3.50;;
72676;SDS011;60755;51.374;10.662;2023-06-14T06:26:40;3.42;;;3.30;;
72676;SDS011;60755;51.374;10.662;2023-06-14T06:29:07;3.78;;;3.58;;
72676;SDS011;60755;51.374;10.662;2023-06-14T06:31:34;3.83;;;3.50;;
72676;SDS011;60755;51.374;10.662;2023-06-14T06:34:03;4.55;;;3.75;;
72676;SDS011;60755;51.374;10.662;2023-06-14T06:36:29;3.70;;;3.40;;
72676;SDS011;60755;51.374;10.662;2023-06-14T06:38:56;4.00;;;3.60;;
72676;SDS011;60755;51.374;10.662;2023-06-14T06:41:23;3.53;;;3.33;;
72676;SDS011;60755;51.374;10.662;2023-06-14T06:43:50;4.20;;;4.00;;
72676;SDS011;60755;51.374;10.662;2023-06-14T06:46:18;4.40;;;4.00;;
72676;SDS011;60755;51.374;10.662;2023-06-14T06:48:45;4.97;;;3.70;;
72676;SDS011;60755;51.374;10.662;2023-06-14T06:51:13;4.43;;;4.10;;
72676;SDS011;60755;51.374;10.662;2023-06-14T06:53:42;3.70;;;3.50;;
72676;SDS011;60755;51.374;10.662;2023-06-14T06:56:10;5.43;;;4.00;;
72676;SDS011;60755;51.374;10.662;2023-06-14T06:58:37;5.20;;;4.18;;
72676;SDS011;60755;51.374;10.662;2023-06-14T07:01:04;4.82;;;3.72;;
72676;SDS011;60755;51.374;10.662;2023-06-14T07:03:31;4.72;;;4.30;;
72676;SDS011;60755;51.374;10.662;2023-06-14T07:05:57;4.50;;;4.10;;
72676;SDS011;60755;51.374;10.662;2023-06-14T07:08:26;4.28;;;3.97;;
72676;SDS011;60755;51.374;10.662;2023-06-14T07:10:53;4.70;;;4.15;;
72676;SDS011;60755;51.374;10.662;2023-06-14T07:13:20;4.10;;;3.90;;
72676;SDS011;60755;51.374;10.662;2023-06-14T07:15:48;4.65;;;3.70;;
72676;SDS011;60755;51.374;10.662;2023-06-14T07:18:15;4.15;;;3.80;;
72676;SDS011;60755;51.374;10.662;2023-06-14T07:20:42;5.38;;;4.18;;
72676;SDS011;60755;51.374;10.662;2023-06-14T07:23:09;4.10;;;3.70;;
72676;SDS011;60755;51.374;10.662;2023-06-14T07:25:37;6.97;;;6.28;;
72676;SDS011;60755;51.374;10.662;2023-06-14T07:28:04;7.38;;;4.88;;
72676;SDS011;60755;51.374;10.662;2023-06-14T07:30:32;32.92;;;5.60;;
72676;SDS011;60755;51.374;10.662;2023-06-14T07:32:59;6.18;;;4.40;;
72676;SDS011;60755;51.374;10.662;2023-06-14T07:35:26;4.88;;;4.50;;
72676;SDS011;60755;51.374;10.662;2023-06-14T07:37:53;4.57;;;4.28;;
72676;SDS011;60755;51.374;10.662;2023-06-14T07:40:20;7.70;;;4.65;;
72676;SDS011;60755;51.374;10.662;2023-06-14T07:42:49;7.28;;;4.57;;
72676;SDS011;60755;51.374;10.662;2023-06-14T07:45:16;4.82;;;4.43;;
72676;SDS011;60755;51.374;10.662;2023-06-14T07:47:43;6.03;;;4.78;;
72676;SDS011;60755;51.374;10.662;2023-06-14T07:50:10;4.82;;;4.43;;
72676;SDS011;60755;51.374;10.662;2023-06-14T07:52:38;4.57;;;4.25;;
72676;SDS011;60755;51.374;10.662;2023-06-14T07:55:06;7.53;;;4.63;;
72676;SDS011;60755;51.374;10.662;2023-06-14T07:57:33;4.57;;;4.25;;
72676;SDS011;60755;51.374;10.662;2023-06-14T08:00:02;8.40;;;4.45;;
72676;SDS011;60755;51.374;10.662;2023-06-14T08:02:37;6.85;;;4.38;;
72676;SDS011;60755;51.374;10.662;2023-06-14T08:05:04;4.68;;;4.20;;
72676;SDS011;60755;51.374;10.662;2023-06-14T08:07:32;4.65;;;4.22;;
72676;SDS011;60755;51.374;10.662;2023-06-14T08:09:59;4.82;;;4.38;;
72676;SDS011;60755;51.374;10.662;2023-06-14T08:12:26;4.50;;;4.15;;
72676;SDS011;60755;51.374;10.662;2023-06-14T08:14:53;8.20;;;4.68;;
72676;SDS011;60755;51.374;10.662;2023-06-14T08:17:21;4.45;;;4.25;;
72676;SDS011;60755;51.374;10.662;2023-06-14T08:19:48;4.55;;;4.25;;
72676;SDS011;60755;51.374;10.662;2023-06-14T08:22:16;5.68;;;4.25;;
72676;SDS011;60755;51.374;10.662;2023-06-14T08:24:43;6.50;;;4.57;;
72676;SDS011;60755;51.374;10.662;2023-06-14T08:29:58;4.65;;;4.35;;
72676;SDS011;60755;51.374;10.662;2023-06-14T08:32:27;5.22;;;4.25;;
72676;SDS011;60755;51.374;10.662;2023-06-14T08:34:54;5.47;;;5.07;;
72676;SDS011;60755;51.374;10.662;2023-06-14T08:37:21;10.52;;;4.65;;
72676;SDS011;60755;51.374;10.662;2023-06-14T08:39:48;20.05;;;5.25;;
72676;SDS011;60755;51.374;10.662;2023-06-14T08:42:15;4.80;;;4.40;;
72676;SDS011;60755;51.374;10.662;2023-06-14T08:44:45;5.50;;;4.97;;
72676;SDS011;60755;51.374;10.662;2023-06-14T08:47:12;4.60;;;4.20;;
72676;SDS011;60755;51.374;10.662;2023-06-14T08:49:45;9.10;;;4.28;;
72676;SDS011;60755;51.374;10.662;2023-06-14T08:52:14;4.30;;;4.10;;
72676;SDS011;60755;51.374;10.662;2023-06-14T08:54:45;5.38;;;4.13;;
72676;SDS011;60755;51.374;10.662;2023-06-14T08:57:14;5.10;;;4.70;;
72676;SDS011;60755;51.374;10.662;2023-06-14T08:59:45;5.07;;;4.68;;
72676;SDS011;60755;51.374;10.662;2023-06-14T09:02:14;5.32;;;4.93;;
72676;SDS011;60755;51.374;10.662;2023-06-14T09:04:44;5.22;;;4.70;;
72676;SDS011;60755;51.374;10.662;2023-06-14T09:07:11;6.22;;;4.32;;
72676;SDS011;60755;51.374;10.662;2023-06-14T09:09:39;9.45;;;4.85;;
72676;SDS011;60755;51.374;10.662;2023-06-14T09:12:07;5.15;;;4.50;;
72676;SDS011;60755;51.374;10.662;2023-06-14T09:14:36;6.35;;;4.82;;
72676;SDS011;60755;51.374;10.662;2023-06-14T09:17:06;5.00;;;4.60;;
72676;SDS011;60755;51.374;10.662;2023-06-14T09:19:33;7.63;;;5.13;;
72676;SDS011;60755;51.374;10.662;2023-06-14T09:22:02;4.70;;;4.40;;
72676;SDS011;60755;51.374;10.662;2023-06-14T09:24:29;7.45;;;4.70;;
72676;SDS011;60755;51.374;10.662;2023-06-14T09:26:56;5.20;;;4.65;;
72676;SDS011;60755;51.374;10.662;2023-06-14T09:29:24;4.72;;;4.40;;
72676;SDS011;60755;51.374;10.662;2023-06-14T09:31:52;6.88;;;4.70;;
72676;SDS011;60755;51.374;10.662;2023-06-14T09:34:19;5.13;;;4.57;;
72676;SDS011;60755;51.374;10.662;2023-06-14T09:36:48;7.05;;;4.50;;
72676;SDS011;60755;51.374;10.662;2023-06-14T09:39:17;4.60;;;4.30;;
72676;SDS011;60755;51.374;10.662;2023-06-14T09:41:45;5.15;;;4.60;;
72676;SDS011;60755;51.374;10.662;2023-06-14T09:44:12;5.05;;;4.65;;
72676;SDS011;60755;51.374;10.662;2023-06-14T09:46:39;4.57;;;4.20;;
72676;SDS011;60755;51.374;10.662;2023-06-14T09:49:07;4.47;;;4.13;;
72676;SDS011;60755;51.374;10.662;2023-06-14T09:51:35;5.40;;;4.65;;
72676;SDS011;60755;51.374;10.662;2023-06-14T09:54:08;5.15;;;4.70;;
72676;SDS011;60755;51.374;10.662;2023-06-14T09:56:44;6.38;;;4.65;;
72676;SDS011;60755;51.374;10.662;2023-06-14T09:59:12;5.38;;;4.97;;
72676;SDS011;60755;51.374;10.662;2023-06-14T10:01:41;4.85;;;4.45;;
72676;SDS011;60755;51.374;10.662;2023-06-14T10:04:10;5.05;;;4.55;;
72676;SDS011;60755;51.374;10.662;2023-06-14T10:06:39;4.60;;;4.30;;
72676;SDS011;60755;51.374;10.662;2023-06-14T10:09:07;10.20;;;4.65;;
72676;SDS011;60755;51.374;10.662;2023-06-14T10:11:36;4.55;;;4.32;;
72676;SDS011;60755;51.374;10.662;2023-06-14T10:14:05;9.88;;;4.60;;
72676;SDS011;60755;51.374;10.662;2023-06-14T10:16:34;5.65;;;4.18;;
72676;SDS011;60755;51.374;10.662;2023-06-14T10:19:06;5.35;;;3.83;;
72676;SDS011;60755;51.374;10.662;2023-06-14T10:21:41;4.63;;;4.28;;
72676;SDS011;60755;51.374;10.662;2023-06-14T10:24:15;4.72;;;4.05;;
72676;SDS011;60755;51.374;10.662;2023-06-14T10:26:51;4.35;;;3.95;;
72676;SDS011;60755;51.374;10.662;2023-06-14T10:29:20;4.75;;;4.35;;
72676;SDS011;60755;51.374;10.662;2023-06-14T10:31:47;7.32;;;4.03;;
72676;SDS011;60755;51.374;10.662;2023-06-14T10:34:21;7.50;;;4.28;;
72676;SDS011;60755;51.374;10.662;2023-06-14T10:39:38;5.18;;;4.43;;
72676;SDS011;60755;51.374;10.662;2023-06-14T10:42:06;6.28;;;4.10;;
72676;SDS011;60755;51.374;10.662;2023-06-14T10:44:45;4.10;;;3.80;;
72676;SDS011;60755;51.374;10.662;2023-06-14T10:47:23;4.32;;;3.92;;
72676;SDS011;60755;51.374;10.662;2023-06-14T10:49:52;3.97;;;3.78;;
72676;SDS011;60755;51.374;10.662;2023-06-14T10:52:21;5.00;;;4.60;;
72676;SDS011;60755;51.374;10.662;2023-06-14T10:54:56;4.70;;;4.40;;
72676;SDS011;60755;51.374;10.662;2023-06-14T10:57:35;6.95;;;4.70;;
72676;SDS011;60755;51.374;10.662;2023-06-14T11:00:04;7.00;;;4.68;;
72676;SDS011;60755;51.374;10.662;2023-06-14T11:05:53;4.70;;;4.35;;
72676;SDS011;60755;51.374;10.662;2023-06-14T11:08:30;4.40;;;4.10;;
72676;SDS011;60755;51.374;10.662;2023-06-14T11:11:16;4.25;;;3.90;;
72676;SDS011;60755;51.374;10.662;2023-06-14T11:13:45;3.88;;;3.58;;
72676;SDS011;60755;51.374;10.662;2023-06-14T11:16:14;3.78;;;3.42;;
72676;SDS011;60755;51.374;10.662;2023-06-14T11:18:44;4.30;;;4.00;;
72676;SDS011;60755;51.374;10.662;2023-06-14T11:21:15;6.22;;;3.60;;
72676;SDS011;60755;51.374;10.662;2023-06-14T11:23:48;4.13;;;3.58;;
72676;SDS011;60755;51.374;10.662;2023-06-14T11:26:15;4.30;;;3.40;;
72676;SDS011;60755;51.374;10.662;2023-06-14T11:28:42;3.58;;;3.38;;
72676;SDS011;60755;51.374;10.662;2023-06-14T11:31:09;3.92;;;3.72;;
72676;SDS011;60755;51.374;10.662;2023-06-14T11:33:37;3.90;;;3.50;;
72676;SDS011;60755;51.374;10.662;2023-06-14T11:36:05;3.85;;;3.53;;
72676;SDS011;60755;51.374;10.662;2023-06-14T11:38:35;3.78;;;3.50;;
72676;SDS011;60755;51.374;10.662;2023-06-14T11:41:02;3.50;;;3.17;;
72676;SDS011;60755;51.374;10.662;2023-06-14T11:43:30;3.60;;;3.40;;
72676;SDS011;60755;51.374;10.662;2023-06-14T11:45:59;3.88;;;3.15;;
72676;SDS011;60755;51.374;10.662;2023-06-14T11:48:35;3.50;;;3.30;;
72676;SDS011;60755;51.374;10.662;2023-06-14T11:51:04;3.80;;;3.60;;
72676;SDS011;60755;51.374;10.662;2023-06-14T11:53:31;3.60;;;3.40;;
72676;SDS011;60755;51.374;10.662;2023-06-14T11:55:59;3.80;;;3.58;;
72676;SDS011;60755;51.374;10.662;2023-06-14T11:58:28;7.05;;;3.65;;
72676;SDS011;60755;51.374;10.662;2023-06-14T12:00:56;3.22;;;3.10;;
72676;SDS011;60755;51.374;10.662;2023-06-14T12:03:23;3.00;;;2.90;;
72676;SDS011;60755;51.374;10.662;2023-06-14T12:06:03;3.58;;;3.33;;
72676;SDS011;60755;51.374;10.662;2023-06-14T12:08:33;3.20;;;3.10;;
72676;SDS011;60755;51.374;10.662;2023-06-14T12:11:05;3.40;;;3.10;;
72676;SDS011;60755;51.374;10.662;2023-06-14T12:13:34;3.38;;;3.17;;
72676;SDS011;60755;51.374;10.662;2023-06-14T12:16:04;3.58;;;3.20;;
72676;SDS011;60755;51.374;10.662;2023-06-14T12:18:31;3.05;;;2.85;;
72676;SDS011;60755;51.374;10.662;2023-06-14T12:21:00;4.13;;;3.05;;
72676;SDS011;60755;51.374;10.662;2023-06-14T12:23:39;2.95;;;2.78;;
72676;SDS011;60755;51.374;10.662;2023-06-14T12:26:09;6.60;;;2.90;;
72676;SDS011;60755;51.374;10.662;2023-06-14T12:28:36;3.03;;;2.92;;
72676;SDS011;60755;51.374;10.662;2023-06-14T12:31:03;2.63;;;2.53;;
72676;SDS011;60755;51.374;10.662;2023-06-14T12:33:30;3.08;;;2.97;;
72676;SDS011;60755;51.374;10.662;2023-06-14T12:35:57;2.90;;;2.30;;
72676;SDS011;60755;51.374;10.662;2023-06-14T12:38:24;4.38;;;2.20;;
72676;SDS011;60755;51.374;10.662;2023-06-14T12:40:52;2.28;;;2.13;;
72676;SDS011;60755;51.374;10.662;2023-06-14T12:43:19;2.55;;;2.38;;
72676;SDS011;60755;51.374;10.662;2023-06-14T12:45:46;6.75;;;2.60;;
72676;SDS011;60755;51.374;10.662;2023-06-14T12:48:13;3.63;;;2.30;;
72676;SDS011;60755;51.374;10.662;2023-06-14T12:50:40;3.13;;;2.25;;
72676;SDS011;60755;51.374;10.662;2023-06-14T12:53:07;8.45;;;2.20;;
72676;SDS011;60755;51.374;10.662;2023-06-14T12:55:34;2.38;;;2.25;;
72676;SDS011;60755;51.374;10.662;2023-06-14T12:58:03;2.33;;;2.20;;
72676;SDS011;60755;51.374;10.662;2023-06-14T13:00:30;2.10;;;2.10;;
72676;SDS011;60755;51.374;10.662;2023-06-14T13:02:57;2.65;;;2.40;;
72676;SDS011;60755;51.374;10.662;2023-06-14T13:05:24;2.78;;;2.50;;
72676;SDS011;60755;51.374;10.662;2023-06-14T13:07:51;3.15;;;2.25;;
72676;SDS011;60755;51.374;10.662;2023-06-14T13:10:18;2.28;;;2.17;;
72676;SDS011;60755;51.374;10.662;2023-06-14T13:12:45;2.28;;;2.17;;
72676;SDS011;60755;51.374;10.662;2023-06-14T13:15:13;2.67;;;2.10;;
72676;SDS011;60755;51.374;10.662;2023-06-14T13:17:40;2.25;;;2.05;;
72676;SDS011;60755;51.374;10.662;2023-06-14T13:20:09;2.22;;;2.00;;
72676;SDS011;60755;51.374;10.662;2023-06-14T13:22:36;2.83;;;2.58;;
72676;SDS011;60755;51.374;10.662;2023-06-14T13:25:04;3.13;;;2.30;;
72676;SDS011;60755;51.374;10.662;2023-06-14T13:27:32;2.70;;;2.58;;
72676;SDS011;60755;51.374;10.662;2023-06-14T13:29:59;2.08;;;2.03;;
72676;SDS011;60755;51.374;10.662;2023-06-14T13:32:27;2.55;;;2.45;;
72676;SDS011;60755;51.374;10.662;2023-06-14T13:34:54;2.35;;;2.30;;
72676;SDS011;60755;51.374;10.662;2023-06-14T13:37:21;2.65;;;2.55;;
72676;SDS011;60755;51.374;10.662;2023-06-14T13:39:48;2.85;;;2.20;;
72676;SDS011;60755;51.374;10.662;2023-06-14T13:42:15;3.55;;;2.40;;
72676;SDS011;60755;51.374;10.662;2023-06-14T13:44:42;2.85;;;2.33;;
72676;SDS011;60755;51.374;10.662;2023-06-14T13:47:09;2.72;;;2.53;;
72676;SDS011;60755;51.374;10.662;2023-06-14T13:49:37;2.95;;;2.63;;
72676;SDS011;60755;51.374;10.662;2023-06-14T13:52:04;4.75;;;2.50;;
72676;SDS011;60755;51.374;10.662;2023-06-14T13:54:32;2.63;;;2.53;;
72676;SDS011;60755;51.374;10.662;2023-06-14T13:56:59;3.28;;;2.67;;
72676;SDS011;60755;51.374;10.662;2023-06-14T13:59:26;3.15;;;2.80;;
72676;SDS011;60755;51.374;10.662;2023-06-14T14:01:52;2.67;;;2.58;;
72676;SDS011;60755;51.374;10.662;2023-06-14T14:04:20;3.15;;;3.03;;
72676;SDS011;60755;51.374;10.662;2023-06-14T14:06:48;4.53;;;2.97;;
72676;SDS011;60755;51.374;10.662;2023-06-14T14:09:15;2.97;;;2.78;;
72676;SDS011;60755;51.374;10.662;2023-06-14T14:11:42;3.10;;;3.00;;
72676;SDS011;60755;51.374;10.662;2023-06-14T14:14:09;3.63;;;3.33;;
72676;SDS011;60755;51.374;10.662;2023-06-14T14:16:36;3.17;;;2.97;;
72676;SDS011;60755;51.374;10.662;2023-06-14T14:19:03;4.00;;;3.05;;
72676;SDS011;60755;51.374;10.662;2023-06-14T14:21:31;3.08;;;2.95;;
72676;SDS011;60755;51.374;10.662;2023-06-14T14:23:59;3.05;;;2.95;;
72676;SDS011;60755;51.374;10.662;2023-06-14T14:26:26;3.13;;;2.92;;
72676;SDS011;60755;51.374;10.662;2023-06-14T14:28:53;2.88;;;2.67;;
72676;SDS011;60755;51.374;10.662;2023-06-14T14:31:20;3.33;;;3.10;;
72676;SDS011;60755;51.374;10.662;2023-06-14T14:33:47;4.18;;;2.80;;
72676;SDS011;60755;51.374;10.662;2023-06-14T14:36:14;2.85;;;2.75;;
72676;SDS011;60755;51.374;10.662;2023-06-14T14:38:41;3.13;;;2.92;;
72676;SDS011;60755;51.374;10.662;2023-06-14T14:41:09;3.13;;;3.03;;
72676;SDS011;60755;51.374;10.662;2023-06-14T14:43:36;3.03;;;2.92;;
72676;SDS011;60755;51.374;10.662;2023-06-14T14:46:03;3.45;;;3.25;;
72676;SDS011;60755;51.374;10.662;2023-06-14T14:48:30;3.58;;;3.25;;